createdAt,value
2022-10-06T00:00:38.839Z,95077.78
2022-10-06T00:03:06.192Z,95079.78
2022-10-06T00:05:34.166Z,95094.06
2022-10-06T00:08:01.304Z,95100.75
2022-10-06T00:10:28.078Z,95105.34
2022-10-06T00:12:54.804Z,95114.31
2022-10-06T00:15:31.747Z,95138.50
2022-10-06T00:17:58.831Z,95149.75
2022-10-06T00:20:27.536Z,95161.47
2022-10-06T00:22:54.670Z,95173.94
2022-10-06T00:25:23.872Z,95195.22
2022-10-06T00:27:52.165Z,95189.28
2022-10-06T00:30:22.121Z,95192.78
2022-10-06T00:32:58.048Z,95224.88
2022-10-06T00:35:26.306Z,95216.97
2022-10-06T00:37:53.185Z,95209.09
2022-10-06T00:40:22.538Z,95205.75
2022-10-06T00:42:58.375Z,95220.31
2022-10-06T00:45:34.049Z,95228.25
2022-10-06T00:48:29.433Z,95247.22
2022-10-06T00:50:59.229Z,95237.59
2022-10-06T00:53:30.365Z,95237.09
2022-10-06T00:55:57.419Z,95228.72
2022-10-06T00:58:24.977Z,95206.38
2022-10-06T01:00:55.901Z,95218.66
2022-10-06T01:03:30.035Z,95191.72
2022-10-06T01:05:58.231Z,95235.03
2022-10-06T01:08:26.189Z,95252.63
2022-10-06T01:10:52.968Z,95260.66
2022-10-06T01:13:22.100Z,95276.28
2022-10-06T01:15:55.097Z,95296.97
2022-10-06T01:18:29.055Z,95301.44
2022-10-06T01:21:05.280Z,95285.34
2022-10-06T01:23:34.404Z,95281.09
2022-10-06T01:26:04.946Z,95289.50
2022-10-06T01:28:32.550Z,95311.94
2022-10-06T01:31:02.827Z,95300.25
2022-10-06T01:33:30.042Z,95295.13
2022-10-06T01:35:56.987Z,95314.41
2022-10-06T01:38:24.211Z,95323.31
2022-10-06T01:40:53.047Z,95342.56
2022-10-06T01:43:19.863Z,95340.47
2022-10-06T01:45:55.079Z,95353.16
2022-10-06T01:48:22.277Z,95355.66
2022-10-06T01:50:50.772Z,95343.31
2022-10-06T01:53:20.230Z,95347.91
2022-10-06T01:55:46.931Z,95351.06
2022-10-06T01:58:13.936Z,95360.25
2022-10-06T02:00:40.552Z,95351.31
2022-10-06T02:03:08.463Z,95347.25
2022-10-06T02:05:36.144Z,95336.69
2022-10-06T02:08:05.659Z,95348.25
2022-10-06T02:10:32.205Z,95334.31
2022-10-06T02:12:58.998Z,95338.56
2022-10-06T02:15:26.945Z,95349.13
2022-10-06T02:17:54.567Z,95363.09
2022-10-06T02:20:23.955Z,95381.81
2022-10-06T02:22:52.394Z,95380.28
2022-10-06T02:25:19.008Z,95376.34
2022-10-06T02:27:45.724Z,95387.59
2022-10-06T02:30:14.619Z,95397.81
2022-10-06T02:32:42.826Z,95410.31
2022-10-06T02:35:11.402Z,95410.31
2022-10-06T02:37:38.022Z,95405.97
2022-10-06T02:40:05.144Z,95412.19
2022-10-06T02:42:31.898Z,95411.78
2022-10-06T02:45:01.231Z,95430.84
2022-10-06T02:47:27.780Z,95427.00
2022-10-06T02:49:56.513Z,95438.00
2022-10-06T02:52:23.538Z,95445.47
2022-10-06T02:54:50.811Z,95450.22
2022-10-06T02:57:17.365Z,95447.50
2022-10-06T02:59:43.977Z,95449.03
2022-10-06T03:02:11.305Z,95448.19
2022-10-06T03:04:38.604Z,95461.75
2022-10-06T03:07:05.242Z,95475.44
2022-10-06T03:09:31.856Z,95479.69
2022-10-06T03:11:58.680Z,95485.13
2022-10-06T03:14:25.303Z,95493.31
2022-10-06T03:16:52.192Z,95497.09
2022-10-06T03:19:18.731Z,95505.25
2022-10-06T03:21:45.392Z,95509.50
2022-10-06T03:24:12.548Z,95515.72
2022-10-06T03:26:45.069Z,95521.94
2022-10-06T03:29:12.234Z,95528.59
2022-10-06T03:31:39.848Z,95531.66
2022-10-06T03:34:07.138Z,95536.41
2022-10-06T03:36:36.349Z,95523.56
2022-10-06T03:39:04.784Z,95537.59
2022-10-06T03:41:34.091Z,95537.66
2022-10-06T03:44:02.998Z,95540.41
2022-10-06T03:46:31.524Z,95534.53
2022-10-06T03:48:59.352Z,95527.47
2022-10-06T03:51:31.935Z,95518.19
2022-10-06T03:53:59.843Z,95510.50
2022-10-06T03:56:34.748Z,95489.59
2022-10-06T03:59:04.105Z,95473.28
2022-10-06T04:01:34.882Z,95454.09
2022-10-06T04:04:04.721Z,95443.59
2022-10-06T04:06:35.679Z,95437.84
2022-10-06T04:09:03.642Z,95432.69
2022-10-06T04:11:33.163Z,95421.78
2022-10-06T04:14:05.825Z,95431.16
2022-10-06T04:16:35.338Z,95429.59
2022-10-06T04:19:04.360Z,95436.66
2022-10-06T04:21:33.935Z,95450.72
2022-10-06T04:24:00.773Z,95449.94
2022-10-06T04:26:33.539Z,95443.38
2022-10-06T04:29:00.854Z,95438.34
2022-10-06T04:31:30.091Z,95424.31
2022-10-06T04:33:58.583Z,95424.66
2022-10-06T04:36:29.740Z,95419.63
2022-10-06T04:38:58.887Z,95418.53
2022-10-06T04:41:33.939Z,95426.75
2022-10-06T04:44:01.542Z,95423.19
2022-10-06T04:46:42.842Z,95419.72
2022-10-06T04:49:14.651Z,95420.41
2022-10-06T04:51:44.586Z,95415.78
2022-10-06T04:54:11.444Z,95411.13
2022-10-06T04:56:38.007Z,95409.09
2022-10-06T04:59:04.551Z,95404.41
2022-10-06T05:01:33.364Z,95408.28
2022-10-06T05:04:02.513Z,95381.34
2022-10-06T05:06:33.085Z,95355.03
2022-10-06T05:09:01.881Z,95353.16
2022-10-06T05:11:29.209Z,95324.38
2022-10-06T05:13:57.528Z,95297.31
2022-10-06T05:16:27.510Z,95290.50
2022-10-06T05:18:56.221Z,95281.59
2022-10-06T05:21:27.427Z,95280.47
2022-10-06T05:23:54.206Z,95283.66
2022-10-06T05:26:23.343Z,95280.78
2022-10-06T05:28:50.167Z,95276.00
2022-10-06T05:31:41.210Z,95278.03
2022-10-06T05:34:07.955Z,95259.19
2022-10-06T05:36:34.955Z,95278.63
2022-10-06T05:39:02.835Z,95273.09
2022-10-06T05:41:31.589Z,95269.44
2022-10-06T05:43:58.564Z,95291.44
2022-10-06T05:46:30.788Z,95301.31
2022-10-06T05:48:59.940Z,95324.28
2022-10-06T05:51:30.907Z,95324.72
2022-10-06T05:53:58.847Z,95327.09
2022-10-06T05:56:27.609Z,95329.72
2022-10-06T05:58:55.989Z,95312.81
2022-10-06T06:01:26.765Z,95320.03
2022-10-06T06:04:02.963Z,95319.22
2022-10-06T06:06:36.807Z,95327.72
2022-10-06T06:09:10.844Z,95339.56
2022-10-06T06:11:43.745Z,95334.69
2022-10-06T06:14:15.641Z,95380.00
2022-10-06T06:16:43.755Z,95382.25
2022-10-06T06:19:13.529Z,95397.03
2022-10-06T06:21:40.100Z,95420.59
2022-10-06T06:24:07.261Z,95425.97
2022-10-06T06:26:37.016Z,95426.94
2022-10-06T06:29:05.300Z,95446.66
2022-10-06T06:31:39.964Z,95485.31
2022-10-06T06:34:07.007Z,95502.34
2022-10-06T06:36:36.895Z,95512.31
2022-10-06T06:39:06.539Z,95551.81
2022-10-06T06:41:37.930Z,95554.75
2022-10-06T06:44:06.871Z,95577.31
2022-10-06T06:49:04.907Z,95612.84
2022-10-06T06:51:33.307Z,95626.25
2022-10-06T06:54:02.420Z,95684.69
2022-10-06T06:56:35.289Z,95725.81
2022-10-06T06:59:06.664Z,95742.72
2022-10-06T07:01:33.658Z,95786.13
2022-10-06T07:04:01.255Z,95788.34
2022-10-06T07:06:30.222Z,95827.97
2022-10-06T07:08:58.816Z,95864.59
2022-10-06T07:11:32.680Z,95865.22
2022-10-06T07:14:03.987Z,95877.56
2022-10-06T07:16:52.883Z,95962.41
2022-10-06T07:19:39.704Z,95966.16
2022-10-06T07:22:27.514Z,96012.72
2022-10-06T07:25:07.940Z,96061.22
2022-10-06T07:27:37.493Z,96094.63
2022-10-06T07:30:05.655Z,96175.19
2022-10-06T07:32:32.471Z,96221.06
2022-10-06T07:34:59.156Z,96217.50
2022-10-06T07:37:26.061Z,96238.84
2022-10-06T07:39:52.787Z,96257.84
2022-10-06T07:42:19.510Z,96268.34
2022-10-06T07:45:06.891Z,96283.06
2022-10-06T07:47:33.879Z,96304.84
2022-10-06T07:50:02.795Z,96311.06
2022-10-06T07:52:29.486Z,96324.25
2022-10-06T07:54:56.752Z,96349.50
2022-10-06T07:57:23.640Z,96382.53
2022-10-06T07:59:50.760Z,96414.41
2022-10-06T08:02:19.227Z,96419.47
2022-10-06T08:04:45.809Z,96438.50
2022-10-06T08:07:12.652Z,96467.28
2022-10-06T08:09:41.122Z,96479.72
2022-10-06T08:12:27.853Z,96490.63
2022-10-06T08:14:57.227Z,96514.75
2022-10-06T08:17:24.131Z,96518.63
2022-10-06T08:19:51.299Z,96518.59
2022-10-06T08:22:17.917Z,96544.66
2022-10-06T08:25:04.692Z,96559.44
2022-10-06T08:27:31.633Z,96576.94
2022-10-06T08:29:58.216Z,96559.03
2022-10-06T08:32:25.278Z,96573.44
2022-10-06T08:34:52.353Z,96581.59
2022-10-06T08:37:29.083Z,96611.97
2022-10-06T08:39:59.118Z,96617.38
2022-10-06T08:42:42.615Z,96625.19
2022-10-06T08:45:33.957Z,96681.22
2022-10-06T08:48:10.664Z,96693.69
2022-10-06T08:50:58.659Z,96697.19
2022-10-06T08:53:47.079Z,96697.19
2022-10-06T08:56:34.433Z,96734.56
2022-10-06T08:59:04.327Z,96758.31
2022-10-06T09:01:41.421Z,96781.69
2022-10-06T09:04:14.233Z,96825.69
2022-10-06T09:06:43.705Z,96846.28
2022-10-06T09:09:22.641Z,96857.22
2022-10-06T09:11:59.461Z,96872.00
2022-10-06T09:14:37.909Z,96870.44
2022-10-06T09:17:11.393Z,96891.06
2022-10-06T09:19:47.849Z,96917.19
2022-10-06T09:22:22.388Z,96942.91
2022-10-06T09:24:51.783Z,96936.66
2022-10-06T09:27:23.326Z,96979.53
2022-10-06T09:29:51.244Z,97057.03
2022-10-06T09:32:20.971Z,97043.41
2022-10-06T09:34:56.856Z,97052.03
2022-10-06T09:37:24.001Z,97050.47
2022-10-06T09:39:52.152Z,97050.50
2022-10-06T09:42:23.039Z,97074.63
2022-10-06T09:45:18.831Z,97124.94
2022-10-06T09:47:48.073Z,97140.94
2022-10-06T09:50:28.351Z,97146.44
2022-10-06T09:52:58.058Z,97150.31
2022-10-06T09:55:28.796Z,97157.75
2022-10-06T09:57:57.405Z,97154.25
2022-10-06T10:00:27.088Z,97200.69
2022-10-06T10:03:03.091Z,97208.09
2022-10-06T10:05:36.397Z,97212.00
2022-10-06T10:08:06.289Z,97243.22
2022-10-06T10:10:37.849Z,97254.16
2022-10-06T10:13:24.279Z,97245.56
2022-10-06T10:15:54.315Z,97249.09
2022-10-06T10:18:28.635Z,97270.09
2022-10-06T10:21:10.552Z,97263.47
2022-10-06T10:23:43.585Z,97274.38
2022-10-06T10:26:41.105Z,97251.34
2022-10-06T10:29:42.939Z,97247.03
2022-10-06T10:32:17.267Z,97250.94
2022-10-06T10:35:16.776Z,97245.47
2022-10-06T10:37:46.251Z,97254.84
2022-10-06T10:40:40.819Z,97245.84
2022-10-06T10:43:22.417Z,97263.41
2022-10-06T10:45:59.200Z,97278.97
2022-10-06T10:49:12.319Z,97297.66
2022-10-06T10:52:02.160Z,97293.00
2022-10-06T10:54:43.985Z,97291.81
2022-10-06T10:57:15.283Z,97285.59
2022-10-06T10:59:47.611Z,97315.66
2022-10-06T11:02:22.079Z,97329.63
2022-10-06T11:05:10.751Z,97357.69
2022-10-06T11:07:44.261Z,97330.41
2022-10-06T11:10:24.087Z,97332.75
2022-10-06T11:12:54.382Z,97311.72
2022-10-06T11:15:44.273Z,97304.72
2022-10-06T11:18:22.368Z,97333.56
2022-10-06T11:20:57.969Z,97344.88
2022-10-06T11:24:03.526Z,97333.97
2022-10-06T11:26:30.036Z,97340.97
2022-10-06T11:29:02.579Z,97340.22
2022-10-06T11:32:10.576Z,97341.81
2022-10-06T11:34:37.451Z,97334.41
2022-10-06T11:37:25.097Z,97351.19
2022-10-06T11:40:28.216Z,97348.88
2022-10-06T11:43:02.633Z,97354.75
2022-10-06T11:45:38.212Z,97383.31
2022-10-06T11:48:23.329Z,97400.50
2022-10-06T11:50:53.165Z,97412.59
2022-10-06T11:53:31.975Z,97482.09
2022-10-06T11:56:16.866Z,97489.50
2022-10-06T11:58:52.231Z,97485.16
2022-10-06T12:01:30.887Z,97487.09
2022-10-06T12:04:10.426Z,97459.44
2022-10-06T12:06:46.049Z,97487.53
2022-10-06T12:09:44.704Z,97513.28
2022-10-06T12:12:11.643Z,97528.84
2022-10-06T12:16:35.313Z,97528.78
2022-10-06T12:17:58.066Z,97521.72
2022-10-06T12:21:06.432Z,97487.41
2022-10-06T12:23:58.029Z,97481.16
2022-10-06T12:27:01.902Z,97470.34
2022-10-06T12:29:42.823Z,97472.69
2022-10-06T12:32:14.744Z,97465.66
2022-10-06T12:34:46.417Z,97478.91
2022-10-06T12:37:31.692Z,97493.75
2022-10-06T12:40:36.597Z,97506.25
2022-10-06T12:43:18.418Z,97508.59
2022-10-06T12:45:54.979Z,97490.66
2022-10-06T12:48:40.296Z,97513.31
2022-10-06T12:51:14.442Z,97505.16
2022-10-06T12:54:21.292Z,97518.81
2022-10-06T12:57:03.963Z,97515.72
2022-10-06T12:59:38.305Z,97536.38
2022-10-06T13:02:11.309Z,97551.59
2022-10-06T13:04:48.533Z,97548.50
2022-10-06T13:07:28.976Z,97545.41
2022-10-06T13:10:13.965Z,97555.56
2022-10-06T13:12:41.591Z,97602.38
2022-10-06T13:15:20.042Z,97593.03
2022-10-06T13:18:04.702Z,97592.34
2022-10-06T13:20:52.443Z,97600.59
2022-10-06T13:23:35.075Z,97597.13
2022-10-06T13:26:03.039Z,97595.66
2022-10-06T13:28:35.859Z,97605.84
2022-10-06T13:31:14.845Z,97635.53
2022-10-06T13:33:46.327Z,97651.97
2022-10-06T13:36:13.533Z,97649.66
2022-10-06T13:38:41.920Z,97657.50
2022-10-06T13:41:11.502Z,97670.78
2022-10-06T13:43:44.896Z,97691.91
2022-10-06T13:46:16.018Z,97712.97
2022-10-06T13:48:49.615Z,97736.34
2022-10-06T13:51:23.421Z,97736.72
2022-10-06T13:53:53.880Z,97735.56
2022-10-06T13:59:27.802Z,97759.00
2022-10-06T14:01:58.205Z,97767.91
2022-10-06T14:04:25.240Z,97788.97
2022-10-06T14:07:01.858Z,97797.59
2022-10-06T14:09:33.843Z,97808.13
2022-10-06T14:12:12.473Z,97805.78
2022-10-06T14:14:39.976Z,97804.28
2022-10-06T14:17:09.217Z,97809.75
2022-10-06T14:19:39.020Z,97838.19
2022-10-06T14:22:06.618Z,97828.38
2022-10-06T14:24:37.560Z,97842.09
2022-10-06T14:27:06.723Z,97845.66
2022-10-06T14:29:34.340Z,97832.81
2022-10-06T14:32:27.143Z,97844.56
2022-10-06T14:34:53.768Z,97848.13
2022-10-06T14:37:20.367Z,97846.94
2022-10-06T14:39:49.296Z,97876.97
2022-10-06T14:42:18.083Z,97860.53
2022-10-06T14:44:44.872Z,97865.25
2022-10-06T14:47:13.232Z,97859.81
2022-10-06T14:49:40.744Z,97839.50
2022-10-06T14:52:10.449Z,97828.19
2022-10-06T14:54:37.221Z,97840.66
2022-10-06T14:57:06.900Z,97841.81
2022-10-06T14:59:33.519Z,97855.53
2022-10-06T15:02:00.154Z,97866.94
2022-10-06T15:04:28.272Z,97881.81
2022-10-06T15:07:13.328Z,97888.88
2022-10-06T15:09:42.087Z,97879.91
2022-10-06T15:12:08.697Z,97887.44
2022-10-06T15:14:39.682Z,97896.84
2022-10-06T15:17:06.716Z,97904.75
2022-10-06T15:19:34.144Z,97902.41
2022-10-06T15:22:03.440Z,97909.38
2022-10-06T15:24:30.051Z,97914.72
2022-10-06T15:27:15.592Z,97912.31
2022-10-06T15:29:42.632Z,97916.88
2022-10-06T15:32:09.687Z,97906.66
2022-10-06T15:34:38.013Z,97902.59
2022-10-06T15:37:05.092Z,97903.31
2022-10-06T15:39:35.848Z,97899.28
2022-10-06T15:42:02.913Z,97900.75
2022-10-06T15:44:34.248Z,97899.50
2022-10-06T15:47:01.211Z,97898.16
2022-10-06T15:49:29.712Z,97888.41
2022-10-06T15:51:59.749Z,97871.00
2022-10-06T15:54:34.544Z,97886.72
2022-10-06T15:57:04.656Z,97892.25
2022-10-06T15:59:33.961Z,97900.00
2022-10-06T16:02:04.847Z,97899.22
2022-10-06T16:04:34.805Z,97889.06
2022-10-06T16:07:03.616Z,97896.41
2022-10-06T16:09:39.312Z,97892.00
2022-10-06T16:12:13.339Z,97883.22
2022-10-06T16:14:40.046Z,97893.34
2022-10-06T16:17:07.538Z,97883.94
2022-10-06T16:19:37.023Z,97875.34
2022-10-06T16:22:05.313Z,97857.56
2022-10-06T16:24:32.733Z,97863.38
2022-10-06T16:27:02.220Z,97851.16
2022-10-06T16:29:29.111Z,97838.72
2022-10-06T16:31:56.065Z,97839.56
2022-10-06T16:34:22.752Z,97837.28
2022-10-06T16:36:49.467Z,97840.41
2022-10-06T16:39:18.366Z,97807.84
2022-10-06T16:41:47.829Z,97786.41
2022-10-06T16:44:14.608Z,97806.47
2022-10-06T16:46:41.474Z,97815.59
2022-10-06T16:49:11.556Z,97804.31
2022-10-06T16:51:42.952Z,97799.75
2022-10-06T16:54:14.489Z,97782.88
2022-10-06T16:56:44.197Z,97747.66
2022-10-06T16:59:14.902Z,97751.34
2022-10-06T17:01:42.278Z,97755.03
2022-10-06T17:04:11.826Z,97762.97
2022-10-06T17:06:46.901Z,97767.94
2022-10-06T17:09:21.695Z,97729.50
2022-10-06T17:11:51.610Z,97704.56
2022-10-06T17:14:20.236Z,97706.34
2022-10-06T17:16:48.391Z,97720.41
2022-10-06T17:19:17.045Z,97730.56
2022-10-06T17:21:46.674Z,97719.34
2022-10-06T17:24:14.728Z,97686.09
2022-10-06T17:26:45.374Z,97669.16
2022-10-06T17:29:14.976Z,97670.53
2022-10-06T17:31:43.659Z,97672.53
2022-10-06T17:34:20.368Z,97678.03
2022-10-06T17:36:50.071Z,97684.22
2022-10-06T17:39:19.218Z,97674.91
2022-10-06T17:41:47.112Z,97672.25
2022-10-06T17:44:18.873Z,97667.16
2022-10-06T17:46:45.971Z,97660.97
2022-10-06T17:49:15.133Z,97662.56
2022-10-06T17:51:48.078Z,97659.41
2022-10-06T17:54:19.000Z,97649.25
2022-10-06T17:56:51.903Z,97653.53
2022-10-06T17:59:22.388Z,97652.81
2022-10-06T18:01:51.465Z,97653.22
2022-10-06T18:04:19.923Z,97657.09
2022-10-06T18:06:47.657Z,97651.66
2022-10-06T18:09:15.081Z,97648.94
2022-10-06T18:11:43.987Z,97644.56
2022-10-06T18:14:12.780Z,97638.31
2022-10-06T18:17:00.944Z,97634.09
2022-10-06T18:19:35.617Z,97645.38
2022-10-06T18:22:03.783Z,97652.72
2022-10-06T18:24:31.538Z,97650.00
2022-10-06T18:27:00.301Z,97656.25
2022-10-06T18:29:32.723Z,97659.00
2022-10-06T18:32:40.484Z,97655.44
2022-10-06T18:37:35.718Z,97665.59
2022-10-06T18:40:05.939Z,97674.91
2022-10-06T18:42:32.804Z,97675.75
2022-10-06T18:45:18.116Z,97675.34
2022-10-06T18:48:03.456Z,97670.31
2022-10-06T18:50:31.061Z,97680.78
2022-10-06T18:52:59.709Z,97689.06
2022-10-06T18:55:29.740Z,97697.66
2022-10-06T18:57:56.368Z,97687.50
2022-10-06T19:00:25.935Z,97692.22
2022-10-06T19:02:52.623Z,97687.91
2022-10-06T19:05:20.938Z,97691.38
2022-10-06T19:07:47.549Z,97709.28
2022-10-06T19:10:14.256Z,97701.47
2022-10-06T19:12:40.925Z,97706.13
2022-10-06T19:15:07.736Z,97719.47
2022-10-06T19:17:34.657Z,97730.22
2022-10-06T19:20:01.365Z,97737.19
2022-10-06T19:22:27.975Z,97741.84
2022-10-06T19:24:56.900Z,97738.84
2022-10-06T19:27:25.083Z,97744.28
2022-10-06T19:29:56.788Z,97751.16
2022-10-06T19:32:27.493Z,97743.44
2022-10-06T19:34:57.967Z,97753.19
2022-10-06T19:37:27.021Z,97764.50
2022-10-06T19:39:53.781Z,97784.00
2022-10-06T19:42:38.831Z,97788.28
2022-10-06T19:45:06.649Z,97803.06
2022-10-06T19:47:33.648Z,97810.09
2022-10-06T19:50:04.816Z,97828.38
2022-10-06T19:52:34.688Z,97833.03
2022-10-06T19:55:01.298Z,97836.81
2022-10-06T19:57:31.642Z,97851.59
2022-10-06T19:59:58.219Z,97867.16
2022-10-06T20:02:24.817Z,97855.47
2022-10-06T20:04:52.141Z,97870.31
2022-10-06T20:07:21.758Z,97875.03
2022-10-06T20:09:48.984Z,97876.59
2022-10-06T20:12:23.652Z,97880.06
2022-10-06T20:14:53.852Z,97884.28
2022-10-06T20:17:21.340Z,97863.28
2022-10-06T20:19:48.255Z,97870.63
2022-10-06T20:22:15.452Z,97867.16
2022-10-06T20:24:42.448Z,97859.72
2022-10-06T20:27:09.222Z,97850.81
2022-10-06T20:29:36.127Z,97856.25
2022-10-06T20:32:03.976Z,97858.88
2022-10-06T20:34:33.786Z,97860.00
2022-10-06T20:37:02.602Z,97870.13
2022-10-06T20:39:51.416Z,97854.22
2022-10-06T20:42:19.780Z,97855.00
2022-10-06T20:44:46.651Z,97849.03
2022-10-06T20:47:13.708Z,97836.56
2022-10-06T20:49:42.527Z,97834.22
2022-10-06T20:52:09.939Z,97831.78
2022-10-06T20:54:37.398Z,97847.28
2022-10-06T20:57:06.335Z,97818.47
2022-10-06T20:59:35.428Z,97802.94
2022-10-06T21:02:05.160Z,97828.56
2022-10-06T21:04:31.831Z,97809.16
2022-10-06T21:06:58.372Z,97809.94
2022-10-06T21:09:25.339Z,97820.78
2022-10-06T21:11:52.297Z,97809.56
2022-10-06T21:14:19.134Z,97821.25
2022-10-06T21:16:47.550Z,97806.38
2022-10-06T21:19:16.731Z,97811.03
2022-10-06T21:21:45.792Z,97819.63
2022-10-06T21:24:12.498Z,97822.34
2022-10-06T21:26:44.347Z,97827.88
2022-10-06T21:29:15.645Z,97856.59
2022-10-06T21:31:45.394Z,97851.88
2022-10-06T21:34:16.324Z,97828.50
2022-10-06T21:36:44.178Z,97839.81
2022-10-06T21:39:12.024Z,97835.53
2022-10-06T21:41:39.621Z,97836.25
2022-10-06T21:44:07.402Z,97851.88
2022-10-06T21:46:40.810Z,97847.91
2022-10-06T21:49:13.478Z,97833.09
2022-10-06T21:51:43.906Z,97827.72
2022-10-06T21:54:10.510Z,97825.78
2022-10-06T21:56:37.160Z,97835.09
2022-10-06T21:59:04.809Z,97831.66
2022-10-06T22:01:34.777Z,97841.41
2022-10-06T22:04:02.150Z,97836.38
2022-10-06T22:06:30.794Z,97854.22
2022-10-06T22:08:58.758Z,97869.78
2022-10-06T22:11:30.769Z,97841.84
2022-10-06T22:14:00.394Z,97844.56
2022-10-06T22:16:30.522Z,97856.53
2022-10-06T22:18:57.484Z,97851.88
2022-10-06T22:21:25.318Z,97855.72
2022-10-06T22:23:59.101Z,97848.72
2022-10-06T22:26:26.763Z,97854.16
2022-10-06T22:28:55.107Z,97848.72
2022-10-06T22:31:26.061Z,97843.97
2022-10-06T22:33:58.666Z,97859.97
2022-10-06T22:36:27.298Z,97872.84
2022-10-06T22:38:54.805Z,97857.22
2022-10-06T22:41:21.527Z,97840.13
2022-10-06T22:43:48.189Z,97857.59
2022-10-06T22:46:15.132Z,97847.13
2022-10-06T22:48:41.980Z,97843.63
2022-10-06T22:51:08.570Z,97861.09
2022-10-06T22:53:35.383Z,97861.03
2022-10-06T22:56:02.563Z,97870.06
2022-10-06T22:58:31.245Z,97853.28
2022-10-06T23:00:57.806Z,97873.50
2022-10-06T23:03:25.857Z,97874.34
2022-10-06T23:05:57.571Z,97879.81
2022-10-06T23:08:25.029Z,97900.00
2022-10-06T23:10:52.182Z,97906.59
2022-10-06T23:13:19.123Z,97929.53
2022-10-06T23:15:46.031Z,97904.59
2022-10-06T23:18:12.852Z,97903.00
2022-10-06T23:20:41.910Z,97912.03
2022-10-06T23:23:08.515Z,97898.66
2022-10-06T23:25:38.627Z,97917.75
2022-10-06T23:28:05.224Z,97915.00
2022-10-06T23:30:34.751Z,97912.25
2022-10-06T23:33:03.386Z,97905.72
2022-10-06T23:35:29.931Z,97923.47
2022-10-06T23:37:56.502Z,97905.00
2022-10-06T23:40:23.134Z,97910.59
2022-10-06T23:42:49.738Z,97912.19
2022-10-06T23:45:16.479Z,97918.47
2022-10-06T23:47:43.230Z,97928.53
2022-10-06T23:50:10.170Z,97921.16
2022-10-06T23:52:37.326Z,97909.75
2022-10-06T23:55:04.274Z,97912.97
2022-10-06T23:57:30.898Z,97925.50
2022-10-06T23:59:59.862Z,97934.44
